X  Close Metar Aviation Weather Data     EBBR Brussels Airport
Temperature
21°C Temperature
12°C Dewpoint
57% Humidity



Wind
8 KM/H
5 MPH
2 M/S
4 KTS



80°
East
Current Conditions

Clear Clear
Pressure 1014.92 (hPa) - 29.97 (inHg)
Visibility 6.2 (mile) - 10 (km)
Airport
Airport-code EBBR

Location: Brussels Airport
Distance: 14 (km)

Metar:
EBBR 181620Z 08004KT CAVOK 21/12 Q1015 NOSIG

Time: 18-09-2021 18:20 CEST